KBKE/BKE METAR and TAF weather

Enter ICAO airport designator
Station Type Date Time Source
KBKE METAR 2021/05/14 22:53 UTC NOAA

KBKE 142253Z AUTO 32012KT 10SM CLR 24/M03 A2996 RMK AO2 SLP130 T02441033 TSNO


Station Type Date Time Source
KBKE Decoded METAR 2021/05/14 22:53 UTC NOAA

BAKER MUNICIPAL AIRPORT, OR, United States (KBKE) 44-50N 117-49W 1024M
May 14, 2021 - 06:53 PM EDT / 2021.05.14 2253 UTC
Wind: from the NW (320 degrees) at 14 MPH (12 KT):0
Visibility: 10 mile(s):0
Sky conditions: clear
Temperature: 75.9 F (24.4 C)
Dew Point: 26.1 F (-3.3 C)
Relative Humidity: 15%
Pressure (altimeter): 29.96 in. Hg (1014 hPa)
ob: KBKE 142253Z AUTO 32012KT 10SM CLR 24/M03 A2996 RMK AO2 SLP130 T02441033 TSNO
cycle: 23

Station Type Date Time Source
KBKE TAF 2021/05/14 18:24 UTC NOAA

TAF KBKE 141721Z 1418/1518 33011KT P6SM BKN100
FM150600 VRB06KT P6SM FEW100
FM151600 33011KT P6SM SCT200

Example: see airport list